sensor_id;sensor_type;location;lat;lon;timestamp;P1;durP1;ratioP1;P2;durP2;ratioP2
71979;SDS011;59853;48.190;11.860;2022-10-23T00:01:12;2.90;;;1.73;;
71979;SDS011;59853;48.190;11.860;2022-10-23T00:03:41;4.80;;;2.00;;
71979;SDS011;59853;48.190;11.860;2022-10-23T00:06:07;3.17;;;1.80;;
71979;SDS011;59853;48.190;11.860;2022-10-23T00:08:33;4.43;;;1.73;;
71979;SDS011;59853;48.190;11.860;2022-10-23T00:10:59;3.78;;;1.83;;
71979;SDS011;59853;48.190;11.860;2022-10-23T00:13:24;2.72;;;1.77;;
71979;SDS011;59853;48.190;11.860;2022-10-23T00:15:50;4.07;;;2.50;;
71979;SDS011;59853;48.190;11.860;2022-10-23T00:18:16;3.28;;;1.98;;
71979;SDS011;59853;48.190;11.860;2022-10-23T00:20:41;3.05;;;1.77;;
71979;SDS011;59853;48.190;11.860;2022-10-23T00:23:07;4.60;;;2.00;;
71979;SDS011;59853;48.190;11.860;2022-10-23T00:25:32;3.38;;;1.90;;
71979;SDS011;59853;48.190;11.860;2022-10-23T00:27:58;6.00;;;3.03;;
71979;SDS011;59853;48.190;11.860;2022-10-23T00:30:24;4.53;;;1.90;;
71979;SDS011;59853;48.190;11.860;2022-10-23T00:32:50;3.45;;;1.90;;
71979;SDS011;59853;48.190;11.860;2022-10-23T00:35:18;6.32;;;1.90;;
71979;SDS011;59853;48.190;11.860;2022-10-23T00:37:43;5.03;;;2.13;;
71979;SDS011;59853;48.190;11.860;2022-10-23T00:40:09;3.30;;;1.90;;
71979;SDS011;59853;48.190;11.860;2022-10-23T00:42:35;3.90;;;1.60;;
71979;SDS011;59853;48.190;11.860;2022-10-23T00:45:08;3.35;;;1.75;;
71979;SDS011;59853;48.190;11.860;2022-10-23T00:47:42;4.40;;;1.52;;
71979;SDS011;59853;48.190;11.860;2022-10-23T00:50:08;2.60;;;1.30;;
71979;SDS011;59853;48.190;11.860;2022-10-23T00:52:34;3.15;;;1.60;;
71979;SDS011;59853;48.190;11.860;2022-10-23T00:55:02;3.03;;;1.38;;
71979;SDS011;59853;48.190;11.860;2022-10-23T00:57:27;2.80;;;1.42;;
71979;SDS011;59853;48.190;11.860;2022-10-23T00:59:53;3.58;;;1.58;;
71979;SDS011;59853;48.190;11.860;2022-10-23T01:02:19;2.80;;;1.42;;
71979;SDS011;59853;48.190;11.860;2022-10-23T01:04:45;4.43;;;1.52;;
71979;SDS011;59853;48.190;11.860;2022-10-23T01:15:19;2.75;;;1.33;;
71979;SDS011;59853;48.190;11.860;2022-10-23T01:17:55;4.03;;;1.70;;
71979;SDS011;59853;48.190;11.860;2022-10-23T01:20:35;2.63;;;1.50;;
71979;SDS011;59853;48.190;11.860;2022-10-23T01:31:31;3.00;;;1.65;;
71979;SDS011;59853;48.190;11.860;2022-10-23T01:34:21;2.58;;;1.63;;
71979;SDS011;59853;48.190;11.860;2022-10-23T01:36:50;2.70;;;1.83;;
71979;SDS011;59853;48.190;11.860;2022-10-23T01:39:18;4.82;;;1.73;;
71979;SDS011;59853;48.190;11.860;2022-10-23T01:42:03;3.55;;;1.75;;
71979;SDS011;59853;48.190;11.860;2022-10-23T01:44:35;4.07;;;1.55;;
71979;SDS011;59853;48.190;11.860;2022-10-23T01:47:04;2.75;;;1.63;;
71979;SDS011;59853;48.190;11.860;2022-10-23T01:52:01;4.32;;;1.60;;
71979;SDS011;59853;48.190;11.860;2022-10-23T01:54:33;3.35;;;1.70;;
71979;SDS011;59853;48.190;11.860;2022-10-23T01:57:25;2.90;;;1.48;;
71979;SDS011;59853;48.190;11.860;2022-10-23T01:59:55;5.22;;;1.55;;
71979;SDS011;59853;48.190;11.860;2022-10-23T02:02:24;4.20;;;1.90;;
71979;SDS011;59853;48.190;11.860;2022-10-23T02:07:56;3.17;;;1.88;;
71979;SDS011;59853;48.190;11.860;2022-10-23T02:10:24;4.53;;;1.83;;
71979;SDS011;59853;48.190;11.860;2022-10-23T02:13:17;4.82;;;2.58;;
71979;SDS011;59853;48.190;11.860;2022-10-23T02:16:19;5.97;;;2.50;;
71979;SDS011;59853;48.190;11.860;2022-10-23T02:22:15;3.72;;;2.30;;
71979;SDS011;59853;48.190;11.860;2022-10-23T02:24:52;4.32;;;2.53;;
71979;SDS011;59853;48.190;11.860;2022-10-23T02:27:31;3.80;;;2.10;;
71979;SDS011;59853;48.190;11.860;2022-10-23T02:30:04;4.05;;;2.40;;
71979;SDS011;59853;48.190;11.860;2022-10-23T02:32:32;5.85;;;2.40;;
71979;SDS011;59853;48.190;11.860;2022-10-23T02:34:58;3.78;;;1.95;;
71979;SDS011;59853;48.190;11.860;2022-10-23T02:37:24;3.83;;;1.77;;
71979;SDS011;59853;48.190;11.860;2022-10-23T02:39:50;4.65;;;1.95;;
71979;SDS011;59853;48.190;11.860;2022-10-23T02:42:25;5.82;;;2.22;;
71979;SDS011;59853;48.190;11.860;2022-10-23T02:56:09;4.88;;;2.13;;
71979;SDS011;59853;48.190;11.860;2022-10-23T02:58:44;4.25;;;2.35;;
71979;SDS011;59853;48.190;11.860;2022-10-23T03:02:07;3.20;;;1.73;;
71979;SDS011;59853;48.190;11.860;2022-10-23T03:04:16;4.68;;;2.42;;
71979;SDS011;59853;48.190;11.860;2022-10-23T03:06:46;5.28;;;2.15;;
71979;SDS011;59853;48.190;11.860;2022-10-23T03:09:15;4.00;;;2.20;;
71979;SDS011;59853;48.190;11.860;2022-10-23T03:11:41;4.07;;;2.22;;
71979;SDS011;59853;48.190;11.860;2022-10-23T03:14:07;3.67;;;1.98;;
71979;SDS011;59853;48.190;11.860;2022-10-23T03:16:34;3.50;;;2.22;;
71979;SDS011;59853;48.190;11.860;2022-10-23T03:18:59;4.63;;;2.30;;
71979;SDS011;59853;48.190;11.860;2022-10-23T03:21:25;3.55;;;2.00;;
71979;SDS011;59853;48.190;11.860;2022-10-23T03:23:52;3.25;;;2.03;;
71979;SDS011;59853;48.190;11.860;2022-10-23T03:26:24;3.35;;;1.95;;
71979;SDS011;59853;48.190;11.860;2022-10-23T03:28:50;3.30;;;1.98;;
71979;SDS011;59853;48.190;11.860;2022-10-23T03:31:18;3.30;;;1.92;;
71979;SDS011;59853;48.190;11.860;2022-10-23T03:33:45;4.20;;;1.90;;
71979;SDS011;59853;48.190;11.860;2022-10-23T03:36:11;3.20;;;1.60;;
71979;SDS011;59853;48.190;11.860;2022-10-23T03:38:37;3.85;;;1.98;;
71979;SDS011;59853;48.190;11.860;2022-10-23T03:41:03;2.90;;;1.88;;
71979;SDS011;59853;48.190;11.860;2022-10-23T03:43:29;3.28;;;1.60;;
71979;SDS011;59853;48.190;11.860;2022-10-23T03:45:55;4.30;;;1.80;;
71979;SDS011;59853;48.190;11.860;2022-10-23T03:48:23;3.05;;;1.75;;
71979;SDS011;59853;48.190;11.860;2022-10-23T03:50:50;4.80;;;2.10;;
71979;SDS011;59853;48.190;11.860;2022-10-23T03:53:15;4.82;;;1.77;;
71979;SDS011;59853;48.190;11.860;2022-10-23T03:55:42;3.63;;;1.75;;
71979;SDS011;59853;48.190;11.860;2022-10-23T03:58:08;4.85;;;1.80;;
71979;SDS011;59853;48.190;11.860;2022-10-23T04:00:33;3.08;;;1.80;;
71979;SDS011;59853;48.190;11.860;2022-10-23T04:02:59;4.35;;;2.08;;
71979;SDS011;59853;48.190;11.860;2022-10-23T04:05:25;3.20;;;1.90;;
71979;SDS011;59853;48.190;11.860;2022-10-23T04:07:54;5.25;;;2.03;;
71979;SDS011;59853;48.190;11.860;2022-10-23T04:10:19;3.03;;;1.98;;
71979;SDS011;59853;48.190;11.860;2022-10-23T04:12:45;4.13;;;1.90;;
71979;SDS011;59853;48.190;11.860;2022-10-23T04:15:10;5.32;;;1.90;;
71979;SDS011;59853;48.190;11.860;2022-10-23T04:17:36;3.25;;;1.95;;
71979;SDS011;59853;48.190;11.860;2022-10-23T04:20:03;3.22;;;1.80;;
71979;SDS011;59853;48.190;11.860;2022-10-23T04:22:29;3.83;;;2.15;;
71979;SDS011;59853;48.190;11.860;2022-10-23T04:24:54;4.05;;;2.47;;
71979;SDS011;59853;48.190;11.860;2022-10-23T04:27:20;7.07;;;2.20;;
71979;SDS011;59853;48.190;11.860;2022-10-23T04:29:46;3.78;;;2.17;;
71979;SDS011;59853;48.190;11.860;2022-10-23T04:32:12;5.22;;;2.20;;
71979;SDS011;59853;48.190;11.860;2022-10-23T04:34:37;3.38;;;2.17;;
71979;SDS011;59853;48.190;11.860;2022-10-23T04:37:03;3.05;;;1.83;;
71979;SDS011;59853;48.190;11.860;2022-10-23T04:39:28;4.35;;;2.20;;
71979;SDS011;59853;48.190;11.860;2022-10-23T04:41:54;7.07;;;3.63;;
71979;SDS011;59853;48.190;11.860;2022-10-23T04:44:22;4.55;;;2.42;;
71979;SDS011;59853;48.190;11.860;2022-10-23T04:46:49;3.88;;;2.03;;
71979;SDS011;59853;48.190;11.860;2022-10-23T04:49:14;4.47;;;2.25;;
71979;SDS011;59853;48.190;11.860;2022-10-23T04:51:45;3.83;;;1.67;;
71979;SDS011;59853;48.190;11.860;2022-10-23T04:54:34;4.22;;;2.00;;
71979;SDS011;59853;48.190;11.860;2022-10-23T04:57:19;3.20;;;1.73;;
71979;SDS011;59853;48.190;11.860;2022-10-23T04:59:55;3.45;;;1.70;;
71979;SDS011;59853;48.190;11.860;2022-10-23T05:02:20;4.50;;;1.50;;
71979;SDS011;59853;48.190;11.860;2022-10-23T05:04:48;2.25;;;1.50;;
71979;SDS011;59853;48.190;11.860;2022-10-23T05:07:32;2.95;;;1.60;;
71979;SDS011;59853;48.190;11.860;2022-10-23T05:10:20;2.15;;;1.50;;
71979;SDS011;59853;48.190;11.860;2022-10-23T05:12:52;4.50;;;1.80;;
71979;SDS011;59853;48.190;11.860;2022-10-23T05:15:18;3.72;;;1.60;;
71979;SDS011;59853;48.190;11.860;2022-10-23T05:17:44;3.38;;;1.60;;
71979;SDS011;59853;48.190;11.860;2022-10-23T05:20:13;4.20;;;1.83;;
71979;SDS011;59853;48.190;11.860;2022-10-23T05:22:42;2.40;;;1.60;;
71979;SDS011;59853;48.190;11.860;2022-10-23T05:25:11;2.63;;;1.48;;
71979;SDS011;59853;48.190;11.860;2022-10-23T05:27:40;3.33;;;1.73;;
71979;SDS011;59853;48.190;11.860;2022-10-23T05:30:09;3.20;;;1.60;;
71979;SDS011;59853;48.190;11.860;2022-10-23T05:32:36;3.00;;;1.80;;
71979;SDS011;59853;48.190;11.860;2022-10-23T05:35:06;4.20;;;1.70;;
71979;SDS011;59853;48.190;11.860;2022-10-23T05:37:35;3.35;;;1.55;;
71979;SDS011;59853;48.190;11.860;2022-10-23T05:40:07;3.22;;;2.00;;
71979;SDS011;59853;48.190;11.860;2022-10-23T05:42:35;3.03;;;1.60;;
71979;SDS011;59853;48.190;11.860;2022-10-23T05:45:00;2.45;;;1.45;;
71979;SDS011;59853;48.190;11.860;2022-10-23T05:47:44;2.50;;;1.48;;
71979;SDS011;59853;48.190;11.860;2022-10-23T05:50:28;3.35;;;1.80;;
71979;SDS011;59853;48.190;11.860;2022-10-23T05:53:13;3.30;;;1.45;;
71979;SDS011;59853;48.190;11.860;2022-10-23T05:55:52;5.60;;;1.50;;
71979;SDS011;59853;48.190;11.860;2022-10-23T05:58:36;2.72;;;1.55;;
71979;SDS011;59853;48.190;11.860;2022-10-23T06:01:11;3.55;;;1.63;;
71979;SDS011;59853;48.190;11.860;2022-10-23T06:03:57;2.47;;;1.23;;
71979;SDS011;59853;48.190;11.860;2022-10-23T06:06:29;2.95;;;1.58;;
71979;SDS011;59853;48.190;11.860;2022-10-23T06:08:55;3.33;;;1.80;;
71979;SDS011;59853;48.190;11.860;2022-10-23T06:11:21;2.30;;;1.52;;
71979;SDS011;59853;48.190;11.860;2022-10-23T06:13:57;3.95;;;2.10;;
71979;SDS011;59853;48.190;11.860;2022-10-23T06:16:24;5.45;;;2.10;;
71979;SDS011;59853;48.190;11.860;2022-10-23T06:18:51;4.50;;;2.00;;
71979;SDS011;59853;48.190;11.860;2022-10-23T06:21:17;6.18;;;1.90;;
71979;SDS011;59853;48.190;11.860;2022-10-23T06:23:46;3.95;;;1.60;;
71979;SDS011;59853;48.190;11.860;2022-10-23T06:26:29;3.35;;;1.70;;
71979;SDS011;59853;48.190;11.860;2022-10-23T06:29:04;5.00;;;1.67;;
71979;SDS011;59853;48.190;11.860;2022-10-23T06:31:30;3.47;;;1.83;;
71979;SDS011;59853;48.190;11.860;2022-10-23T06:33:56;2.97;;;1.70;;
71979;SDS011;59853;48.190;11.860;2022-10-23T06:36:23;4.43;;;1.90;;
71979;SDS011;59853;48.190;11.860;2022-10-23T06:38:51;2.97;;;1.85;;
71979;SDS011;59853;48.190;11.860;2022-10-23T06:41:20;3.78;;;1.88;;
71979;SDS011;59853;48.190;11.860;2022-10-23T06:43:51;3.83;;;2.13;;
71979;SDS011;59853;48.190;11.860;2022-10-23T06:46:26;4.82;;;2.45;;
71979;SDS011;59853;48.190;11.860;2022-10-23T06:49:25;6.05;;;2.50;;
71979;SDS011;59853;48.190;11.860;2022-10-23T06:51:53;6.25;;;2.85;;
71979;SDS011;59853;48.190;11.860;2022-10-23T06:54:20;4.75;;;2.20;;
71979;SDS011;59853;48.190;11.860;2022-10-23T06:56:48;4.32;;;2.03;;
71979;SDS011;59853;48.190;11.860;2022-10-23T06:59:18;5.30;;;2.15;;
71979;SDS011;59853;48.190;11.860;2022-10-23T07:01:45;2.90;;;1.70;;
71979;SDS011;59853;48.190;11.860;2022-10-23T07:04:11;3.10;;;1.92;;
71979;SDS011;59853;48.190;11.860;2022-10-23T07:06:40;3.38;;;2.05;;
71979;SDS011;59853;48.190;11.860;2022-10-23T07:09:06;4.50;;;2.15;;
71979;SDS011;59853;48.190;11.860;2022-10-23T07:11:52;4.38;;;2.72;;
71979;SDS011;59853;48.190;11.860;2022-10-23T07:14:22;4.00;;;2.80;;
71979;SDS011;59853;48.190;11.860;2022-10-23T07:16:48;3.63;;;2.50;;
71979;SDS011;59853;48.190;11.860;2022-10-23T07:19:13;4.63;;;2.72;;
71979;SDS011;59853;48.190;11.860;2022-10-23T07:21:52;4.68;;;3.00;;
71979;SDS011;59853;48.190;11.860;2022-10-23T07:24:32;3.70;;;2.10;;
71979;SDS011;59853;48.190;11.860;2022-10-23T07:27:03;2.78;;;1.73;;
71979;SDS011;59853;48.190;11.860;2022-10-23T07:29:29;3.42;;;1.70;;
71979;SDS011;59853;48.190;11.860;2022-10-23T07:31:55;1.60;;;0.85;;
71979;SDS011;59853;48.190;11.860;2022-10-23T07:34:47;1.13;;;0.70;;
71979;SDS011;59853;48.190;11.860;2022-10-23T07:37:21;2.13;;;0.68;;
71979;SDS011;59853;48.190;11.860;2022-10-23T07:39:47;2.33;;;0.90;;
71979;SDS011;59853;48.190;11.860;2022-10-23T07:42:12;1.58;;;0.73;;
71979;SDS011;59853;48.190;11.860;2022-10-23T07:44:39;1.45;;;0.50;;
71979;SDS011;59853;48.190;11.860;2022-10-23T07:47:05;3.28;;;0.65;;
71979;SDS011;59853;48.190;11.860;2022-10-23T07:49:30;2.40;;;0.63;;
71979;SDS011;59853;48.190;11.860;2022-10-23T07:51:57;3.10;;;0.60;;
71979;SDS011;59853;48.190;11.860;2022-10-23T07:54:27;1.27;;;0.50;;
71979;SDS011;59853;48.190;11.860;2022-10-23T07:57:13;1.33;;;0.60;;
71979;SDS011;59853;48.190;11.860;2022-10-23T07:59:43;1.80;;;0.70;;
71979;SDS011;59853;48.190;11.860;2022-10-23T08:02:11;1.00;;;0.52;;
71979;SDS011;59853;48.190;11.860;2022-10-23T08:04:38;1.63;;;0.60;;
71979;SDS011;59853;48.190;11.860;2022-10-23T08:07:13;1.02;;;0.60;;
71979;SDS011;59853;48.190;11.860;2022-10-23T08:09:41;1.25;;;0.50;;
71979;SDS011;59853;48.190;11.860;2022-10-23T08:12:08;1.63;;;0.88;;
71979;SDS011;59853;48.190;11.860;2022-10-23T08:14:34;0.52;;;0.40;;
71979;SDS011;59853;48.190;11.860;2022-10-23T08:17:00;5.82;;;0.80;;
71979;SDS011;59853;48.190;11.860;2022-10-23T08:19:54;0.80;;;0.50;;
71979;SDS011;59853;48.190;11.860;2022-10-23T08:22:20;1.33;;;0.70;;
71979;SDS011;59853;48.190;11.860;2022-10-23T08:24:47;1.15;;;0.55;;
71979;SDS011;59853;48.190;11.860;2022-10-23T08:27:12;0.82;;;0.50;;
71979;SDS011;59853;48.190;11.860;2022-10-23T08:29:42;0.85;;;0.50;;
71979;SDS011;59853;48.190;11.860;2022-10-23T08:32:08;0.90;;;0.52;;
71979;SDS011;59853;48.190;11.860;2022-10-23T08:34:51;1.52;;;0.60;;
71979;SDS011;59853;48.190;11.860;2022-10-23T08:37:19;0.82;;;0.52;;
71979;SDS011;59853;48.190;11.860;2022-10-23T08:39:45;1.02;;;0.50;;
71979;SDS011;59853;48.190;11.860;2022-10-23T08:42:22;1.38;;;0.65;;
71979;SDS011;59853;48.190;11.860;2022-10-23T08:47:33;2.20;;;0.67;;
71979;SDS011;59853;48.190;11.860;2022-10-23T08:50:25;0.77;;;0.43;;
71979;SDS011;59853;48.190;11.860;2022-10-23T08:53:04;1.33;;;0.75;;
71979;SDS011;59853;48.190;11.860;2022-10-23T08:55:41;1.00;;;0.50;;
71979;SDS011;59853;48.190;11.860;2022-10-23T08:58:10;1.40;;;0.60;;
71979;SDS011;59853;48.190;11.860;2022-10-23T09:00:40;2.78;;;0.60;;
71979;SDS011;59853;48.190;11.860;2022-10-23T09:03:08;1.33;;;0.60;;
71979;SDS011;59853;48.190;11.860;2022-10-23T09:17:11;1.95;;;0.60;;
71979;SDS011;59853;48.190;11.860;2022-10-23T09:19:39;0.75;;;0.50;;
71979;SDS011;59853;48.190;11.860;2022-10-23T09:24:35;3.90;;;0.70;;
71979;SDS011;59853;48.190;11.860;2022-10-23T09:27:00;1.48;;;0.57;;
71979;SDS011;59853;48.190;11.860;2022-10-23T09:29:31;1.13;;;0.50;;
71979;SDS011;59853;48.190;11.860;2022-10-23T09:32:01;1.50;;;0.60;;
71979;SDS011;59853;48.190;11.860;2022-10-23T09:34:29;1.85;;;0.52;;
71979;SDS011;59853;48.190;11.860;2022-10-23T09:36:57;2.33;;;0.52;;
71979;SDS011;59853;48.190;11.860;2022-10-23T09:39:34;1.65;;;0.55;;
71979;SDS011;59853;48.190;11.860;2022-10-23T09:42:01;0.98;;;0.50;;
71979;SDS011;59853;48.190;11.860;2022-10-23T09:44:45;1.20;;;0.70;;
71979;SDS011;59853;48.190;11.860;2022-10-23T09:47:14;0.93;;;0.50;;
71979;SDS011;59853;48.190;11.860;2022-10-23T09:49:47;3.60;;;0.65;;
71979;SDS011;59853;48.190;11.860;2022-10-23T09:57:29;1.15;;;0.60;;
71979;SDS011;59853;48.190;11.860;2022-10-23T09:59:56;0.70;;;0.50;;
71979;SDS011;59853;48.190;11.860;2022-10-23T10:02:27;1.30;;;0.57;;
71979;SDS011;59853;48.190;11.860;2022-10-23T10:10:44;1.13;;;0.43;;
71979;SDS011;59853;48.190;11.860;2022-10-23T10:13:29;1.42;;;0.63;;
71979;SDS011;59853;48.190;11.860;2022-10-23T10:16:09;1.30;;;0.70;;
71979;SDS011;59853;48.190;11.860;2022-10-23T10:21:26;1.00;;;0.70;;
71979;SDS011;59853;48.190;11.860;2022-10-23T10:35:18;1.80;;;0.50;;
71979;SDS011;59853;48.190;11.860;2022-10-23T10:38:51;1.70;;;0.57;;
71979;SDS011;59853;48.190;11.860;2022-10-23T10:46:35;1.80;;;0.60;;
71979;SDS011;59853;48.190;11.860;2022-10-23T10:49:18;1.35;;;0.60;;
71979;SDS011;59853;48.190;11.860;2022-10-23T10:57:38;1.25;;;0.52;;
71979;SDS011;59853;48.190;11.860;2022-10-23T11:00:24;1.55;;;0.70;;
71979;SDS011;59853;48.190;11.860;2022-10-23T11:03:08;0.80;;;0.50;;
71979;SDS011;59853;48.190;11.860;2022-10-23T11:05:41;1.08;;;0.60;;
71979;SDS011;59853;48.190;11.860;2022-10-23T11:10:40;2.50;;;0.60;;
71979;SDS011;59853;48.190;11.860;2022-10-23T11:13:16;2.92;;;0.68;;
71979;SDS011;59853;48.190;11.860;2022-10-23T11:15:46;1.80;;;0.75;;
71979;SDS011;59853;48.190;11.860;2022-10-23T11:18:14;1.02;;;0.60;;
71979;SDS011;59853;48.190;11.860;2022-10-23T11:20:50;1.15;;;0.40;;
71979;SDS011;59853;48.190;11.860;2022-10-23T11:26:56;1.42;;;0.70;;
71979;SDS011;59853;48.190;11.860;2022-10-23T11:31:56;0.75;;;0.47;;
71979;SDS011;59853;48.190;11.860;2022-10-23T11:37:16;1.23;;;0.60;;
71979;SDS011;59853;48.190;11.860;2022-10-23T11:39:53;1.95;;;0.65;;
71979;SDS011;59853;48.190;11.860;2022-10-23T11:42:28;1.15;;;0.50;;
71979;SDS011;59853;48.190;11.860;2022-10-23T11:44:56;1.63;;;0.60;;
71979;SDS011;59853;48.190;11.860;2022-10-23T11:47:26;0.93;;;0.47;;
71979;SDS011;59853;48.190;11.860;2022-10-23T11:52:34;1.10;;;0.60;;
71979;SDS011;59853;48.190;11.860;2022-10-23T11:55:14;0.60;;;0.40;;
71979;SDS011;59853;48.190;11.860;2022-10-23T11:57:42;3.58;;;0.70;;
71979;SDS011;59853;48.190;11.860;2022-10-23T12:00:27;2.33;;;0.60;;
71979;SDS011;59853;48.190;11.860;2022-10-23T12:02:54;1.63;;;0.55;;
71979;SDS011;59853;48.190;11.860;2022-10-23T12:05:30;1.35;;;0.55;;
71979;SDS011;59853;48.190;11.860;2022-10-23T12:08:03;1.02;;;0.60;;
71979;SDS011;59853;48.190;11.860;2022-10-23T12:10:32;2.30;;;0.70;;
71979;SDS011;59853;48.190;11.860;2022-10-23T12:13:03;4.80;;;0.52;;
71979;SDS011;59853;48.190;11.860;2022-10-23T12:15:30;1.23;;;0.40;;
71979;SDS011;59853;48.190;11.860;2022-10-23T12:18:13;1.50;;;0.65;;
71979;SDS011;59853;48.190;11.860;2022-10-23T12:20:58;1.10;;;0.55;;
71979;SDS011;59853;48.190;11.860;2022-10-23T12:28:49;1.65;;;0.60;;
71979;SDS011;59853;48.190;11.860;2022-10-23T12:31:24;7.65;;;0.80;;
71979;SDS011;59853;48.190;11.860;2022-10-23T12:39:26;1.27;;;0.90;;
71979;SDS011;59853;48.190;11.860;2022-10-23T12:41:55;1.48;;;0.50;;
71979;SDS011;59853;48.190;11.860;2022-10-23T12:44:21;1.50;;;0.60;;
71979;SDS011;59853;48.190;11.860;2022-10-23T12:46:49;1.45;;;0.45;;
71979;SDS011;59853;48.190;11.860;2022-10-23T12:49:17;1.17;;;0.60;;
71979;SDS011;59853;48.190;11.860;2022-10-23T12:51:44;0.90;;;0.52;;
71979;SDS011;59853;48.190;11.860;2022-10-23T12:54:18;1.75;;;0.50;;
71979;SDS011;59853;48.190;11.860;2022-10-23T12:56:44;2.42;;;0.60;;
71979;SDS011;59853;48.190;11.860;2022-10-23T12:59:13;1.17;;;0.60;;
71979;SDS011;59853;48.190;11.860;2022-10-23T13:01:40;1.88;;;0.90;;
71979;SDS011;59853;48.190;11.860;2022-10-23T13:04:09;0.93;;;0.50;;
71979;SDS011;59853;48.190;11.860;2022-10-23T13:06:48;1.98;;;0.80;;
71979;SDS011;59853;48.190;11.860;2022-10-23T13:09:21;1.98;;;0.80;;
71979;SDS011;59853;48.190;11.860;2022-10-23T13:12:07;1.08;;;0.60;;
71979;SDS011;59853;48.190;11.860;2022-10-23T13:17:39;2.13;;;0.57;;
71979;SDS011;59853;48.190;11.860;2022-10-23T13:20:25;2.00;;;0.40;;
71979;SDS011;59853;48.190;11.860;2022-10-23T13:22:55;2.33;;;0.60;;
71979;SDS011;59853;48.190;11.860;2022-10-23T13:25:22;1.45;;;0.80;;
71979;SDS011;59853;48.190;11.860;2022-10-23T13:28:02;2.97;;;0.80;;
71979;SDS011;59853;48.190;11.860;2022-10-23T13:30:32;1.00;;;0.40;;
71979;SDS011;59853;48.190;11.860;2022-10-23T13:32:59;1.75;;;0.50;;
71979;SDS011;59853;48.190;11.860;2022-10-23T13:35:25;1.05;;;0.60;;
71979;SDS011;59853;48.190;11.860;2022-10-23T13:37:52;2.65;;;0.70;;
71979;SDS011;59853;48.190;11.860;2022-10-23T13:40:25;2.15;;;0.60;;
71979;SDS011;59853;48.190;11.860;2022-10-23T13:42:52;3.83;;;0.80;;
71979;SDS011;59853;48.190;11.860;2022-10-23T13:45:23;0.60;;;0.40;;
71979;SDS011;59853;48.190;11.860;2022-10-23T13:47:50;1.48;;;0.60;;
71979;SDS011;59853;48.190;11.860;2022-10-23T13:50:16;1.50;;;0.52;;
71979;SDS011;59853;48.190;11.860;2022-10-23T13:52:42;2.72;;;0.77;;
71979;SDS011;59853;48.190;11.860;2022-10-23T13:57:39;1.45;;;0.73;;
71979;SDS011;59853;48.190;11.860;2022-10-23T14:00:05;1.35;;;0.57;;
71979;SDS011;59853;48.190;11.860;2022-10-23T14:02:37;3.03;;;0.60;;
71979;SDS011;59853;48.190;11.860;2022-10-23T14:05:02;1.80;;;0.60;;
71979;SDS011;59853;48.190;11.860;2022-10-23T14:07:28;6.70;;;0.73;;
71979;SDS011;59853;48.190;11.860;2022-10-23T14:09:53;2.42;;;0.60;;
71979;SDS011;59853;48.190;11.860;2022-10-23T14:12:19;3.67;;;0.80;;
71979;SDS011;59853;48.190;11.860;2022-10-23T14:14:48;1.73;;;0.80;;
71979;SDS011;59853;48.190;11.860;2022-10-23T14:17:15;1.95;;;0.80;;
71979;SDS011;59853;48.190;11.860;2022-10-23T14:19:40;2.53;;;1.05;;
71979;SDS011;59853;48.190;11.860;2022-10-23T14:22:06;1.35;;;0.60;;
71979;SDS011;59853;48.190;11.860;2022-10-23T14:24:31;1.48;;;0.77;;
71979;SDS011;59853;48.190;11.860;2022-10-23T14:26:57;2.47;;;0.70;;
71979;SDS011;59853;48.190;11.860;2022-10-23T14:29:23;1.38;;;0.50;;
71979;SDS011;59853;48.190;11.860;2022-10-23T14:31:49;0.95;;;0.50;;
71979;SDS011;59853;48.190;11.860;2022-10-23T14:34:15;2.95;;;0.80;;
71979;SDS011;59853;48.190;11.860;2022-10-23T14:36:40;2.05;;;1.10;;
71979;SDS011;59853;48.190;11.860;2022-10-23T14:39:06;2.00;;;0.90;;
71979;SDS011;59853;48.190;11.860;2022-10-23T14:41:31;1.98;;;0.60;;
71979;SDS011;59853;48.190;11.860;2022-10-23T14:43:57;1.58;;;0.90;;
71979;SDS011;59853;48.190;11.860;2022-10-23T14:46:23;1.55;;;0.60;;
71979;SDS011;59853;48.190;11.860;2022-10-23T14:48:49;3.17;;;0.70;;
71979;SDS011;59853;48.190;11.860;2022-10-23T14:53:46;2.63;;;0.80;;
71979;SDS011;59853;48.190;11.860;2022-10-23T14:56:12;3.85;;;0.70;;
71979;SDS011;59853;48.190;11.860;2022-10-23T14:58:38;6.93;;;0.90;;
71979;SDS011;59853;48.190;11.860;2022-10-23T15:01:04;1.80;;;0.90;;
71979;SDS011;59853;48.190;11.860;2022-10-23T15:03:30;2.08;;;1.10;;
71979;SDS011;59853;48.190;11.860;2022-10-23T15:05:55;2.15;;;0.98;;
71979;SDS011;59853;48.190;11.860;2022-10-23T15:08:21;2.78;;;1.00;;
71979;SDS011;59853;48.190;11.860;2022-10-23T15:10:48;3.25;;;1.45;;
71979;SDS011;59853;48.190;11.860;2022-10-23T15:13:14;1.98;;;1.08;;
71979;SDS011;59853;48.190;11.860;2022-10-23T15:15:39;1.73;;;0.88;;
71979;SDS011;59853;48.190;11.860;2022-10-23T15:18:05;3.17;;;1.35;;
71979;SDS011;59853;48.190;11.860;2022-10-23T15:20:30;2.08;;;0.82;;
71979;SDS011;59853;48.190;11.860;2022-10-23T15:22:56;2.08;;;1.00;;
71979;SDS011;59853;48.190;11.860;2022-10-23T15:25:22;2.17;;;1.00;;
71979;SDS011;59853;48.190;11.860;2022-10-23T15:27:47;1.90;;;0.73;;
71979;SDS011;59853;48.190;11.860;2022-10-23T15:30:13;3.05;;;1.00;;
71979;SDS011;59853;48.190;11.860;2022-10-23T15:32:39;1.80;;;0.90;;
71979;SDS011;59853;48.190;11.860;2022-10-23T15:35:05;1.98;;;0.90;;
71979;SDS011;59853;48.190;11.860;2022-10-23T15:37:31;2.35;;;1.10;;
71979;SDS011;59853;48.190;11.860;2022-10-23T15:39:56;2.53;;;1.10;;
71979;SDS011;59853;48.190;11.860;2022-10-23T15:42:22;2.92;;;1.20;;
71979;SDS011;59853;48.190;11.860;2022-10-23T15:44:48;2.55;;;1.00;;
71979;SDS011;59853;48.190;11.860;2022-10-23T15:47:13;2.30;;;0.95;;
71979;SDS011;59853;48.190;11.860;2022-10-23T15:49:39;2.00;;;0.93;;
71979;SDS011;59853;48.190;11.860;2022-10-23T15:52:05;2.15;;;1.10;;
71979;SDS011;59853;48.190;11.860;2022-10-23T15:54:33;1.77;;;0.98;;
71979;SDS011;59853;48.190;11.860;2022-10-23T15:56:59;2.50;;;1.10;;
71979;SDS011;59853;48.190;11.860;2022-10-23T15:59:25;2.72;;;1.20;;
71979;SDS011;59853;48.190;11.860;2022-10-23T16:01:51;4.57;;;1.30;;
71979;SDS011;59853;48.190;11.860;2022-10-23T16:04:17;2.95;;;1.00;;
71979;SDS011;59853;48.190;11.860;2022-10-23T16:06:43;2.95;;;1.30;;
71979;SDS011;59853;48.190;11.860;2022-10-23T16:09:09;2.95;;;1.65;;
71979;SDS011;59853;48.190;11.860;2022-10-23T16:11:35;2.97;;;1.48;;
71979;SDS011;59853;48.190;11.860;2022-10-23T16:14:02;2.92;;;1.33;;
71979;SDS011;59853;48.190;11.860;2022-10-23T16:16:28;4.43;;;1.50;;
71979;SDS011;59853;48.190;11.860;2022-10-23T16:18:56;3.28;;;2.00;;
71979;SDS011;59853;48.190;11.860;2022-10-23T16:21:24;2.72;;;1.80;;
71979;SDS011;59853;48.190;11.860;2022-10-23T16:23:52;3.10;;;1.77;;
71979;SDS011;59853;48.190;11.860;2022-10-23T16:26:19;3.00;;;1.83;;
71979;SDS011;59853;48.190;11.860;2022-10-23T16:28:45;4.10;;;2.47;;
71979;SDS011;59853;48.190;11.860;2022-10-23T16:31:12;4.63;;;2.95;;
71979;SDS011;59853;48.190;11.860;2022-10-23T16:33:40;6.85;;;3.42;;
71979;SDS011;59853;48.190;11.860;2022-10-23T16:36:06;12.57;;;6.35;;
71979;SDS011;59853;48.190;11.860;2022-10-23T16:38:52;5.43;;;2.40;;
71979;SDS011;59853;48.190;11.860;2022-10-23T16:43:59;3.97;;;1.38;;
71979;SDS011;59853;48.190;11.860;2022-10-23T16:46:47;4.72;;;1.52;;
71979;SDS011;59853;48.190;11.860;2022-10-23T16:49:12;2.65;;;1.65;;
71979;SDS011;59853;48.190;11.860;2022-10-23T16:51:38;2.70;;;1.42;;
71979;SDS011;59853;48.190;11.860;2022-10-23T16:54:04;3.75;;;1.38;;
71979;SDS011;59853;48.190;11.860;2022-10-23T16:56:30;3.17;;;1.48;;